Time;durP1;ratioP1;P1;durP2;ratioP2;P2;SDS_P1;SDS_P2;PMS_P1;PMS_P2;Temp;Humidity;BMP_temperature;BMP_pressure;BME280_temperature;BME280_humidity;BME280_pressure;Samples;Min_cycle;Max_cycle;Signal;HPM_P1;HPM_P2
2023/05/10 00:00:09;;;;;;;;;;;;;;;27.34;30.04;101353.88;5075863;28;1110;-30
2023/05/10 00:02:38;;;;;;;;;;;;;;;27.26;30.15;101351.19;5075333;28;1979;-25
2023/05/10 00:05:04;;;;;;;;;;;;;;;27.38;29.84;101349.84;5090780;28;1098;-24
2023/05/10 00:07:30;;;;;;;;;;;;;;;26.90;31.06;101345.09;5096013;28;1229;-23
2023/05/10 00:09:55;;;;;;;;;;;;;;;27.05;30.91;101346.28;5081814;28;1022;-23
2023/05/10 00:12:21;;;;;;;;;;;;;;;27.57;29.93;101349.66;5096397;28;1209;-23
2023/05/10 00:14:46;;;;;;;;;;;;;;;27.37;30.23;101350.03;5081562;28;1150;-23
2023/05/10 00:17:12;;;;;;;;;;;;;;;26.97;30.68;101349.81;5083679;28;1229;-24
2023/05/10 00:19:37;;;;;;;;;;;;;;;27.08;30.68;101349.50;5081961;28;1157;-24
2023/05/10 00:22:03;;;;;;;;;;;;;;;27.35;30.08;101349.34;5079228;28;907;-25
2023/05/10 00:24:28;;;;;;;;;;;;;;;27.24;30.28;101354.06;5079713;28;1075;-23
2023/05/10 00:26:54;;;;;;;;;;;;;;;27.17;30.65;101338.72;5099983;28;1014;-23
2023/05/10 00:29:19;;;;;;;;;;;;;;;27.44;30.16;101345.63;5099033;28;1117;-23
2023/05/10 00:31:45;;;;;;;;;;;;;;;26.96;30.85;101345.44;5068808;28;1094;-26
2023/05/10 00:34:10;;;;;;;;;;;;;;;27.07;30.53;101338.88;5098968;28;1046;-23
2023/05/10 00:36:36;;;;;;;;;;;;;;;27.68;29.64;101343.91;5086916;28;1133;-23
2023/05/10 00:39:03;;;;;;;;;;;;;;;27.32;30.31;101336.19;5085778;28;1248;-23
2023/05/10 00:41:29;;;;;;;;;;;;;;;27.00;30.52;101339.53;5099967;28;1089;-22
2023/05/10 00:43:55;;;;;;;;;;;;;;;27.35;30.34;101338.53;5080442;28;1973;-23
2023/05/10 00:46:21;;;;;;;;;;;;;;;27.34;29.97;101337.69;5065046;28;911;-22
2023/05/10 00:48:46;;;;;;;;;;;;;;;27.42;30.14;101331.44;5061880;28;1166;-24
2023/05/10 00:51:12;;;;;;;;;;;;;;;27.25;30.03;101328.75;5092344;28;1083;-23
2023/05/10 00:53:38;;;;;;;;;;;;;;;27.27;30.40;101328.59;5061103;28;1141;-23
2023/05/10 00:56:03;;;;;;;;;;;;;;;27.10;30.78;101327.75;5079296;28;1082;-26
2023/05/10 00:58:30;;;;;;;;;;;;;;;27.33;30.43;101329.75;5090575;28;1046;-23
2023/05/10 01:00:56;;;;;;;;;;;;;;;27.67;29.27;101335.94;5085343;28;1063;-23
2023/05/10 01:03:22;;;;;;;;;;;;;;;27.00;31.11;101330.56;5066761;28;1984;-23
2023/05/10 01:05:48;;;;;;;;;;;;;;;27.13;30.27;101325.56;5079208;28;1031;-24
2023/05/10 01:08:13;;;;;;;;;;;;;;;27.33;30.40;101335.16;5060645;28;1163;-23
2023/05/10 01:10:39;;;;;;;;;;;;;;;27.24;30.24;101331.63;5072037;28;834;-24
2023/05/10 01:13:04;;;;;;;;;;;;;;;27.10;30.61;101323.19;5092404;28;1078;-23
2023/05/10 01:15:30;;;;;;;;;;;;;;;27.44;29.92;101331.28;5076769;28;1073;-23
2023/05/10 01:17:56;;;;;;;;;;;;;;;27.05;30.83;101322.84;5077481;28;1169;-22
2023/05/10 01:20:22;;;;;;;;;;;;;;;26.95;30.80;101320.28;5078637;28;1135;-22
2023/05/10 01:23:04;;;;;;;;;;;;;;;27.46;30.30;101335.47;5063068;28;1977;-27
2023/05/10 01:25:48;;;;;;;;;;;;;;;27.53;29.83;101338.34;5063994;28;1361;-23
2023/05/10 01:28:21;;;;;;;;;;;;;;;26.99;30.76;101328.91;5080324;28;1051;-23
2023/05/10 01:30:47;;;;;;;;;;;;;;;27.27;30.37;101328.59;5073381;28;1176;-23
2023/05/10 01:33:24;;;;;;;;;;;;;;;27.27;30.16;101328.59;5084958;28;1279;-24
2023/05/10 01:36:08;;;;;;;;;;;;;;;27.50;30.23;101334.13;5091007;28;1091;-22
2023/05/10 01:38:39;;;;;;;;;;;;;;;27.05;30.91;101322.00;5078314;28;1095;-23
2023/05/10 01:41:15;;;;;;;;;;;;;;;27.23;30.70;101327.22;5078509;28;1105;-25
2023/05/10 01:43:50;;;;;;;;;;;;;;;27.88;29.58;101324.59;5080690;28;1930;-25
2023/05/10 01:46:20;;;;;;;;;;;;;;;27.15;30.73;101322.69;5091297;28;1112;-26
2023/05/10 01:48:52;;;;;;;;;;;;;;;27.13;30.62;101322.00;5087937;28;1154;-23
2023/05/10 01:51:20;;;;;;;;;;;;;;;27.25;30.47;101319.81;5043496;28;1155;-24
2023/05/10 01:53:45;;;;;;;;;;;;;;;27.62;30.02;101317.56;5077050;28;1218;-26
2023/05/10 01:56:11;;;;;;;;;;;;;;;27.33;30.26;101322.50;5059969;28;2267;-23
2023/05/10 01:58:36;;;;;;;;;;;;;;;27.36;30.18;101330.25;5073134;28;1075;-24
2023/05/10 02:01:03;;;;;;;;;;;;;;;27.19;30.76;101318.63;5063558;28;1112;-23
2023/05/10 02:03:28;;;;;;;;;;;;;;;27.22;30.77;101320.16;5084503;28;1984;-24
2023/05/10 02:05:54;;;;;;;;;;;;;;;27.09;30.86;101321.47;5071530;28;1123;-27
2023/05/10 02:08:21;;;;;;;;;;;;;;;27.20;30.72;101320.31;5059676;28;1109;-26
2023/05/10 02:10:46;;;;;;;;;;;;;;;26.93;30.92;101316.03;5051977;28;853;-24
2023/05/10 02:13:11;;;;;;;;;;;;;;;27.08;30.76;101314.41;5098009;28;1122;-23
2023/05/10 02:15:37;;;;;;;;;;;;;;;27.74;29.86;101326.19;5070260;28;1132;-23
2023/05/10 02:18:03;;;;;;;;;;;;;;;27.58;30.09;101318.91;5063996;28;1050;-23
2023/05/10 02:20:29;;;;;;;;;;;;;;;26.99;30.89;101318.91;5087003;28;1027;-23
2023/05/10 02:22:55;;;;;;;;;;;;;;;27.35;30.31;101323.19;5077751;28;1969;-24
2023/05/10 02:25:21;;;;;;;;;;;;;;;27.40;30.32;101328.06;5076070;28;1149;-25
2023/05/10 02:27:46;;;;;;;;;;;;;;;27.46;30.09;101324.66;5075767;28;1078;-23
2023/05/10 02:30:12;;;;;;;;;;;;;;;27.38;30.35;101324.69;5059240;28;1174;-25
2023/05/10 02:32:37;;;;;;;;;;;;;;;27.30;30.41;101328.25;5072713;28;1121;-24
2023/05/10 02:35:03;;;;;;;;;;;;;;;27.24;30.46;101320.81;5079687;28;921;-23
2023/05/10 02:37:29;;;;;;;;;;;;;;;27.14;30.80;101321.81;5076758;28;1131;-23
2023/05/10 02:39:55;;;;;;;;;;;;;;;27.18;30.54;101314.22;5067491;28;1161;-24
2023/05/10 02:42:26;;;;;;;;;;;;;;;27.14;30.71;101318.31;5060743;28;1959;-24
2023/05/10 02:44:52;;;;;;;;;;;;;;;27.11;30.83;101315.94;5086031;28;1034;-23
2023/05/10 02:47:18;;;;;;;;;;;;;;;27.06;30.85;101324.53;5071800;28;1074;-24
2023/05/10 02:49:44;;;;;;;;;;;;;;;27.24;30.41;101320.81;5081721;28;1115;-23
2023/05/10 02:52:09;;;;;;;;;;;;;;;27.49;29.59;101318.91;5090368;28;1079;-24
2023/05/10 02:54:39;;;;;;;;;;;;;;;27.40;29.83;101322.66;5079240;28;1082;-28
2023/05/10 02:57:05;;;;;;;;;;;;;;;27.07;30.81;101319.97;5062706;28;1217;-24
2023/05/10 02:59:30;;;;;;;;;;;;;;;27.31;30.81;101323.69;5080115;28;928;-25
2023/05/10 03:01:56;;;;;;;;;;;;;;;27.72;29.57;101323.66;5079996;28;1043;-23
2023/05/10 03:04:21;;;;;;;;;;;;;;;27.22;30.60;101318.28;5069111;28;1914;-24
2023/05/10 03:06:47;;;;;;;;;;;;;;;27.17;30.85;101320.66;5072410;28;1233;-24
2023/05/10 03:09:15;;;;;;;;;;;;;;;27.26;30.41;101326.88;5058494;28;1146;-28
2023/05/10 03:11:49;;;;;;;;;;;;;;;27.17;30.59;101325.22;5071559;28;1319;-26
2023/05/10 03:14:25;;;;;;;;;;;;;;;27.23;30.80;101327.22;5058287;28;2069;-24
2023/05/10 03:16:52;;;;;;;;;;;;;;;27.29;30.57;101326.56;5064783;28;1203;-26
2023/05/10 03:19:38;;;;;;;;;;;;;;;27.32;30.18;101328.94;5065232;28;1353;-23
2023/05/10 03:22:05;;;;;;;;;;;;;;;26.90;30.91;101323.50;5054020;28;1365;-23
2023/05/10 03:24:33;;;;;;;;;;;;;;;26.90;31.01;101325.34;5064323;28;1972;-23
2023/05/10 03:26:59;;;;;;;;;;;;;;;27.35;30.49;101328.56;5062032;28;1157;-22
2023/05/10 03:29:25;;;;;;;;;;;;;;;27.10;30.58;101328.59;5061805;28;1117;-23
2023/05/10 03:31:51;;;;;;;;;;;;;;;26.69;28.46;101329.38;5078737;28;1035;-25
2023/05/10 03:34:17;;;;;;;;;;;;;;;25.56;31.17;101318.56;5076830;28;1281;-25
2023/05/10 03:36:43;;;;;;;;;;;;;;;24.99;30.63;101323.34;5070130;28;1384;-27
2023/05/10 03:39:08;;;;;;;;;;;;;;;25.10;29.13;101321.44;5075898;28;1111;-27
2023/05/10 03:41:34;;;;;;;;;;;;;;;25.33;28.19;101327.16;5085047;28;1289;-25
2023/05/10 03:44:00;;;;;;;;;;;;;;;25.59;27.19;101331.72;5072356;28;1969;-25
2023/05/10 03:46:25;;;;;;;;;;;;;;;25.58;26.65;101331.88;5087761;28;1320;-26
2023/05/10 03:48:51;;;;;;;;;;;;;;;25.61;26.57;101331.59;5092712;28;1364;-26
2023/05/10 03:51:17;;;;;;;;;;;;;;;25.44;26.43;101328.78;5072797;28;1347;-25
2023/05/10 03:53:42;;;;;;;;;;;;;;;25.48;26.35;101331.97;5077795;28;1222;-26
2023/05/10 03:56:08;;;;;;;;;;;;;;;26.01;26.04;101340.91;5065482;28;1122;-25
2023/05/10 03:58:35;;;;;;;;;;;;;;;26.17;25.19;101337.44;5061967;28;1094;-24
2023/05/10 04:01:00;;;;;;;;;;;;;;;25.75;25.63;101340.94;5068907;28;1118;-23
2023/05/10 04:03:26;;;;;;;;;;;;;;;25.88;25.43;101340.50;5061089;28;1910;-23
2023/05/10 04:05:58;;;;;;;;;;;;;;;26.34;24.57;101334.84;5092022;28;1086;-25
2023/05/10 04:08:24;;;;;;;;;;;;;;;25.24;25.17;101341.59;5068142;28;1027;-24
2023/05/10 04:10:49;;;;;;;;;;;;;;;24.93;25.79;101337.44;5088458;28;1161;-25
2023/05/10 04:13:15;;;;;;;;;;;;;;;25.70;25.51;101338.72;5079819;28;1090;-24
2023/05/10 04:15:41;;;;;;;;;;;;;;;24.22;26.60;101340.69;5078844;28;1174;-29
2023/05/10 04:18:06;;;;;;;;;;;;;;;23.76;27.48;101345.91;5086654;28;1133;-27
2023/05/10 04:20:32;;;;;;;;;;;;;;;24.87;26.56;101340.72;5086443;28;1138;-26
2023/05/10 04:22:58;;;;;;;;;;;;;;;25.05;25.69;101341.59;5097487;28;1906;-26
2023/05/10 04:25:23;;;;;;;;;;;;;;;23.98;27.73;101342.03;5088402;28;1074;-26
2023/05/10 04:27:49;;;;;;;;;;;;;;;24.57;27.32;101338.22;5084930;28;1038;-24
2023/05/10 04:30:14;;;;;;;;;;;;;;;26.07;24.84;101333.19;5088141;28;1023;-26
2023/05/10 04:32:40;;;;;;;;;;;;;;;26.36;24.55;101326.59;5098219;28;1066;-28
2023/05/10 04:35:05;;;;;;;;;;;;;;;25.33;25.43;101331.69;5082547;28;1178;-28
2023/05/10 04:37:31;;;;;;;;;;;;;;;24.49;26.94;101336.28;5085734;28;1026;-23
2023/05/10 04:39:57;;;;;;;;;;;;;;;25.56;26.51;101334.72;5091020;28;1085;-24
2023/05/10 04:42:22;;;;;;;;;;;;;;;26.27;24.66;101334.63;5078036;28;1910;-28
2023/05/10 04:44:48;;;;;;;;;;;;;;;24.00;28.32;101339.19;5086508;28;1018;-25
2023/05/10 04:47:13;;;;;;;;;;;;;;;24.90;27.74;101335.03;5097368;28;1062;-27
2023/05/10 04:49:39;;;;;;;;;;;;;;;26.58;25.13;101330.53;5079483;28;1035;-24
2023/05/10 04:52:04;;;;;;;;;;;;;;;26.56;25.35;101339.81;5092458;28;1170;-27
2023/05/10 04:54:30;;;;;;;;;;;;;;;25.63;27.33;101332.28;5087479;28;1129;-26
2023/05/10 04:56:55;;;;;;;;;;;;;;;25.95;27.16;101332.63;5099406;28;1050;-25
2023/05/10 04:59:21;;;;;;;;;;;;;;;27.11;25.48;101324.03;5099332;28;1089;-25
2023/05/10 05:01:47;;;;;;;;;;;;;;;25.86;27.82;101326.38;5084435;28;1142;-28
2023/05/10 05:04:12;;;;;;;;;;;;;;;26.00;27.62;101324.91;5079165;28;1906;-27
2023/05/10 05:06:38;;;;;;;;;;;;;;;26.67;26.75;101327.84;5080434;28;1019;-26
2023/05/10 05:09:03;;;;;;;;;;;;;;;27.20;26.24;101327.56;5098090;28;1129;-25
2023/05/10 05:11:29;;;;;;;;;;;;;;;25.94;28.25;101328.25;5097037;28;1042;-25
2023/05/10 05:13:54;;;;;;;;;;;;;;;26.14;27.88;101331.53;5086443;28;1229;-26
2023/05/10 05:16:20;;;;;;;;;;;;;;;26.99;27.00;101331.59;5098790;28;1162;-29
2023/05/10 05:18:45;;;;;;;;;;;;;;;27.21;26.53;101332.78;5090675;28;1158;-25
2023/05/10 05:21:17;;;;;;;;;;;;;;;26.21;28.40;101337.13;5092380;28;1043;-24
2023/05/10 05:23:43;;;;;;;;;;;;;;;26.13;28.67;101329.84;5078585;28;1914;-27
2023/05/10 05:26:08;;;;;;;;;;;;;;;26.07;28.77;101335.88;5092841;28;1085;-27
2023/05/10 05:28:37;;;;;;;;;;;;;;;25.98;29.21;101341.25;5090992;28;1081;-24
2023/05/10 05:31:05;;;;;;;;;;;;;;;25.94;29.13;101337.19;5093156;28;991;-24
2023/05/10 05:33:31;;;;;;;;;;;;;;;25.83;29.86;101341.00;5086882;28;1055;-27
2023/05/10 05:35:56;;;;;;;;;;;;;;;26.58;28.78;101333.22;5094267;28;1200;-29
2023/05/10 05:38:22;;;;;;;;;;;;;;;26.23;29.22;101332.41;5098500;28;1081;-24
2023/05/10 05:40:47;;;;;;;;;;;;;;;25.62;30.03;101334.13;5098063;28;1021;-28
2023/05/10 05:43:13;;;;;;;;;;;;;;;25.36;31.11;101334.09;5097897;28;1905;-25
2023/05/10 05:45:38;;;;;;;;;;;;;;;26.46;28.99;101339.94;5097169;28;1054;-25
2023/05/10 05:48:04;;;;;;;;;;;;;;;26.38;28.92;101338.06;5085687;28;1055;-25
2023/05/10 05:50:29;;;;;;;;;;;;;;;25.62;30.44;101333.25;5083214;28;1106;-25
2023/05/10 05:52:56;;;;;;;;;;;;;;;25.26;31.15;101332.34;5077892;28;1109;-25
2023/05/10 05:55:21;;;;;;;;;;;;;;;26.59;29.19;101334.91;5079080;28;1054;-23
2023/05/10 05:57:47;;;;;;;;;;;;;;;26.25;29.48;101327.69;5097829;28;1055;-26
2023/05/10 06:00:13;;;;;;;;;;;;;;;25.63;30.81;101327.75;5083343;28;1095;-26
2023/05/10 06:02:38;;;;;;;;;;;;;;;25.59;31.20;101336.28;5085937;28;1906;-23
2023/05/10 06:05:04;;;;;;;;;;;;;;;26.38;30.03;101332.66;5096920;28;1025;-29
2023/05/10 06:07:29;;;;;;;;;;;;;;;26.37;29.77;101345.31;5097632;28;1137;-27
2023/05/10 06:09:55;;;;;;;;;;;;;;;25.94;30.51;101342.59;5097596;28;1202;-27
2023/05/10 06:12:20;;;;;;;;;;;;;;;25.41;31.67;101345.22;5084543;28;1185;-25
2023/05/10 06:14:46;;;;;;;;;;;;;;;26.16;30.26;101341.16;5086600;28;1051;-24
2023/05/10 06:17:11;;;;;;;;;;;;;;;26.29;29.80;101342.56;5094701;28;1057;-24
2023/05/10 06:19:37;;;;;;;;;;;;;;;25.88;30.59;101344.06;5077228;28;1138;-25
2023/05/10 06:22:02;;;;;;;;;;;;;;;25.45;31.30;101335.84;5085162;28;1055;-28
2023/05/10 06:24:28;;;;;;;;;;;;;;;26.52;29.54;101340.13;5097072;28;1976;-23
2023/05/10 06:26:55;;;;;;;;;;;;;;;26.06;30.21;101336.91;5097263;28;1166;-24
2023/05/10 06:29:20;;;;;;;;;;;;;;;25.49;31.31;101336.38;5096827;28;1140;-28
2023/05/10 06:31:46;;;;;;;;;;;;;;;25.62;31.13;101336.81;5083512;28;1121;-27
2023/05/10 06:34:12;;;;;;;;;;;;;;;26.56;29.45;101337.09;5096860;28;1085;-25
2023/05/10 06:36:37;;;;;;;;;;;;;;;26.12;30.46;101341.63;5083123;28;1126;-26
2023/05/10 06:39:03;;;;;;;;;;;;;;;25.28;31.51;101329.47;5096681;28;1042;-24
2023/05/10 06:41:28;;;;;;;;;;;;;;;25.88;30.67;101335.97;5078549;28;1093;-25
2023/05/10 06:43:54;;;;;;;;;;;;;;;26.22;29.60;101325.34;5083743;28;1914;-26
2023/05/10 06:46:19;;;;;;;;;;;;;;;25.76;30.60;101338.09;5096355;28;1026;-27
2023/05/10 06:48:45;;;;;;;;;;;;;;;25.50;31.45;101344.31;5078572;28;900;-26
2023/05/10 06:51:11;;;;;;;;;;;;;;;26.21;30.44;101345.22;5090096;28;1194;-25
2023/05/10 06:53:36;;;;;;;;;;;;;;;26.28;29.74;101346.25;5076926;28;1073;-24
2023/05/10 06:56:02;;;;;;;;;;;;;;;25.76;30.87;101340.78;5088257;28;1332;-26
2023/05/10 06:58:28;;;;;;;;;;;;;;;25.42;31.56;101344.25;5085484;28;1332;-25
2023/05/10 07:00:53;;;;;;;;;;;;;;;25.87;31.12;101344.22;5081596;28;1046;-28
2023/05/10 07:03:19;;;;;;;;;;;;;;;26.33;29.37;101343.09;5076286;28;2015;-28
2023/05/10 07:05:44;;;;;;;;;;;;;;;26.29;30.34;101356.03;5090719;28;1107;-28
2023/05/10 07:08:10;;;;;;;;;;;;;;;25.82;31.24;101349.22;5078399;28;1063;-28
2023/05/10 07:10:36;;;;;;;;;;;;;;;26.66;29.86;101351.28;5082822;28;1127;-26
2023/05/10 07:13:01;;;;;;;;;;;;;;;26.59;29.83;101352.97;5088745;28;937;-28
2023/05/10 07:15:27;;;;;;;;;;;;;;;26.34;30.46;101351.00;5076452;28;1051;-29
2023/05/10 07:17:53;;;;;;;;;;;;;;;25.80;31.59;101349.41;5076187;28;1143;-24
2023/05/10 07:20:18;;;;;;;;;;;;;;;26.01;31.33;101365.19;5096262;28;1112;-29
2023/05/10 07:22:44;;;;;;;;;;;;;;;26.91;29.38;101354.00;5082995;28;1910;-25
2023/05/10 07:25:10;;;;;;;;;;;;;;;26.13;31.12;101359.50;5089234;28;920;-26
2023/05/10 07:27:36;;;;;;;;;;;;;;;26.14;31.01;101355.81;5080173;28;1207;-25
2023/05/10 07:30:01;;;;;;;;;;;;;;;25.98;31.46;101348.47;5096744;28;1022;-25
2023/05/10 07:32:27;;;;;;;;;;;;;;;26.13;31.38;101360.34;5088203;28;1070;-24
2023/05/10 07:34:52;;;;;;;;;;;;;;;25.90;31.99;101352.84;5089230;28;1019;-24
2023/05/10 07:37:18;;;;;;;;;;;;;;;26.24;31.46;101358.38;5076158;28;887;-25
2023/05/10 07:39:43;;;;;;;;;;;;;;;26.41;31.19;101362.00;5075844;28;1047;-31
2023/05/10 07:42:09;;;;;;;;;;;;;;;26.36;31.37;101361.66;5080073;28;1182;-26
2023/05/10 07:44:34;;;;;;;;;;;;;;;26.34;31.40;101361.81;5096189;28;1901;-28
2023/05/10 07:47:00;;;;;;;;;;;;;;;26.39;31.60;101361.34;5095875;28;1168;-25
2023/05/10 07:49:26;;;;;;;;;;;;;;;25.92;31.97;101350.81;5095399;28;832;-26
2023/05/10 07:51:51;;;;;;;;;;;;;;;26.09;31.56;101360.84;5095771;28;1078;-29
2023/05/10 07:54:17;;;;;;;;;;;;;;;26.73;30.73;101364.94;5083422;28;1106;-28
2023/05/10 07:56:46;;;;;;;;;;;;;;;26.49;30.75;101366.59;5086851;28;1053;-26
2023/05/10 07:59:15;;;;;;;;;;;;;;;25.86;31.81;101359.53;5077443;28;1190;-28
2023/05/10 08:01:41;;;;;;;;;;;;;;;25.58;32.12;101359.66;5085816;28;968;-27
2023/05/10 08:04:07;;;;;;;;;;;;;;;26.10;31.58;101359.81;5088646;28;1905;-27
2023/05/10 08:06:32;;;;;;;;;;;;;;;26.90;30.28;101363.13;5085234;28;1249;-30
2023/05/10 08:08:58;;;;;;;;;;;;;;;26.49;30.85;101363.91;5093912;28;1403;-25
2023/05/10 08:11:23;;;;;;;;;;;;;;;26.16;31.48;101361.88;5081620;28;1152;-23
2023/05/10 08:13:49;;;;;;;;;;;;;;;26.36;30.97;101373.28;5057522;28;977;-25
2023/05/10 08:16:15;;;;;;;;;;;;;;;25.82;31.79;101366.25;5075416;28;1140;-23
2023/05/10 08:18:41;;;;;;;;;;;;;;;26.20;31.36;101370.47;5093569;28;1074;-26
2023/05/10 08:21:07;;;;;;;;;;;;;;;26.65;29.98;101376.59;5101756;28;1069;-25
2023/05/10 08:23:32;;;;;;;;;;;;;;;25.97;31.68;101379.13;5081890;28;1898;-27
2023/05/10 08:25:58;;;;;;;;;;;;;;;25.74;31.88;101379.69;5089870;28;1225;-25
2023/05/10 08:28:24;;;;;;;;;;;;;;;25.88;31.93;101375.53;5079400;28;1226;-25
2023/05/10 08:30:49;;;;;;;;;;;;;;;26.00;31.43;101376.97;5088506;28;1332;-25
2023/05/10 08:33:15;;;;;;;;;;;;;;;26.74;30.03;101380.16;5089669;28;1074;-25
2023/05/10 08:35:41;;;;;;;;;;;;;;;26.07;31.02;101379.88;5094254;28;1242;-24
2023/05/10 08:38:06;;;;;;;;;;;;;;;25.84;31.81;101379.56;5082964;28;948;-25
2023/05/10 08:40:32;;;;;;;;;;;;;;;25.83;31.83;101381.41;5093935;28;1102;-29
2023/05/10 08:43:08;;;;;;;;;;;;;;;26.44;30.84;101380.59;5095806;28;1976;-25
2023/05/10 08:45:37;;;;;;;;;;;;;;;26.57;30.62;101379.25;5099745;28;1272;-25
2023/05/10 08:48:03;;;;;;;;;;;;;;;26.02;31.34;101383.06;5099317;28;1289;-26
2023/05/10 08:50:28;;;;;;;;;;;;;;;25.86;31.60;101381.09;5098677;28;867;-26
2023/05/10 08:52:55;;;;;;;;;;;;;;;25.64;32.13;101386.00;5099257;28;1246;-27
2023/05/10 08:55:20;;;;;;;;;;;;;;;26.69;30.28;101391.44;5099290;28;1272;-24
2023/05/10 08:57:46;;;;;;;;;;;;;;;26.14;30.93;101386.28;5099363;28;1182;-26
2023/05/10 09:00:12;;;;;;;;;;;;;;;25.58;32.21;101386.59;5071777;28;1109;-26
2023/05/10 09:02:38;;;;;;;;;;;;;;;25.66;31.82;101386.69;5078193;28;1894;-30
2023/05/10 09:05:04;;;;;;;;;;;;;;;26.58;30.06;101387.19;5078860;28;1141;-24
2023/05/10 09:07:30;;;;;;;;;;;;;;;26.33;30.31;101380.84;5081195;28;1286;-23
2023/05/10 09:09:55;;;;;;;;;;;;;;;26.04;31.10;101386.41;5078668;28;1218;-26
2023/05/10 09:12:22;;;;;;;;;;;;;;;26.07;30.84;101370.94;5073153;28;1048;-27
2023/05/10 09:14:47;;;;;;;;;;;;;;;26.39;30.62;101380.22;5089952;28;1256;-25
2023/05/10 09:17:13;;;;;;;;;;;;;;;26.74;30.12;101372.88;5059979;28;1112;-23
2023/05/10 09:19:39;;;;;;;;;;;;;;;26.53;30.15;101373.34;5080102;28;1047;-24
2023/05/10 09:22:04;;;;;;;;;;;;;;;26.24;30.81;101377.25;5096978;28;1273;-26
2023/05/10 09:24:30;;;;;;;;;;;;;;;26.42;30.55;101369.09;5096622;28;1910;-25
2023/05/10 09:26:56;;;;;;;;;;;;;;;26.26;30.67;101373.38;5094031;28;883;-24
2023/05/10 09:29:22;;;;;;;;;;;;;;;26.60;30.49;101376.22;5083697;28;1073;-24
2023/05/10 09:31:50;;;;;;;;;;;;;;;26.48;30.48;101378.38;5085796;28;1081;-24
2023/05/10 09:34:19;;;;;;;;;;;;;;;26.00;31.59;101381.50;5097358;28;1038;-25
2023/05/10 09:36:54;;;;;;;;;;;;;;;26.07;31.37;101381.72;5086414;28;1111;-24
2023/05/10 09:39:20;;;;;;;;;;;;;;;26.26;31.37;101378.78;5081092;28;941;-25
2023/05/10 09:41:46;;;;;;;;;;;;;;;26.26;30.97;101380.63;5086840;28;1066;-28
2023/05/10 09:44:12;;;;;;;;;;;;;;;26.49;30.85;101383.59;5079907;28;1984;-26
2023/05/10 09:46:38;;;;;;;;;;;;;;;26.53;30.86;101382.28;5070575;28;1292;-25
2023/05/10 09:49:03;;;;;;;;;;;;;;;26.34;31.48;101390.66;5093623;28;1225;-25
2023/05/10 09:51:29;;;;;;;;;;;;;;;26.51;30.89;101378.91;5079119;28;852;-24
2023/05/10 09:54:24;;;;;;;;;;;;;;;26.49;30.90;101385.47;5084525;28;1162;-27
2023/05/10 09:56:49;;;;;;;;;;;;;;;26.65;30.95;101390.06;5070871;28;1290;-25
2023/05/10 09:59:15;;;;;;;;;;;;;;;26.29;31.03;101383.84;5097818;28;1089;-26
2023/05/10 10:01:40;;;;;;;;;;;;;;;26.75;30.45;101381.84;5095665;28;1111;-26
2023/05/10 10:04:07;;;;;;;;;;;;;;;26.59;30.36;101388.88;5063306;28;1938;-26
2023/05/10 10:06:36;;;;;;;;;;;;;;;26.11;31.48;101378.53;5069109;28;1238;-28
2023/05/10 10:09:02;;;;;;;;;;;;;;;26.22;31.08;101387.34;5077019;28;1073;-23
2023/05/10 10:11:28;;;;;;;;;;;;;;;26.33;31.11;101388.94;5088128;28;1052;-26
2023/05/10 10:13:53;;;;;;;;;;;;;;;26.18;31.17;101386.81;5075283;28;1030;-23
2023/05/10 10:16:20;;;;;;;;;;;;;;;26.44;30.96;101387.81;5082587;28;1071;-28
2023/05/10 10:18:45;;;;;;;;;;;;;;;26.17;31.66;101390.53;5077437;28;1047;-25
2023/05/10 10:21:12;;;;;;;;;;;;;;;26.29;31.39;101397.31;5076073;28;1237;-24
2023/05/10 10:23:38;;;;;;;;;;;;;;;26.32;31.46;101392.63;5078515;28;1927;-27
2023/05/10 10:26:04;;;;;;;;;;;;;;;26.00;32.09;101385.06;5092279;28;1062;-27
2023/05/10 10:28:39;;;;;;;;;;;;;;;26.08;31.97;101388.78;5090070;28;1146;-30
2023/05/10 10:31:13;;;;;;;;;;;;;;;26.08;31.83;101391.50;5091905;28;1014;-25
2023/05/10 10:33:52;;;;;;;;;;;;;;;26.19;31.83;101388.53;5078536;28;1051;-25
2023/05/10 10:36:17;;;;;;;;;;;;;;;26.25;31.87;101395.13;5065983;28;1119;-26
2023/05/10 10:38:46;;;;;;;;;;;;;;;26.34;31.52;101393.34;5066420;28;1154;-26
2023/05/10 10:41:26;;;;;;;;;;;;;;;26.14;31.59;101386.28;5095908;28;1155;-25
2023/05/10 10:44:11;;;;;;;;;;;;;;;26.18;31.66;101389.53;5083051;28;1910;-25
2023/05/10 10:46:57;;;;;;;;;;;;;;;26.20;31.64;101392.91;5085997;28;1181;-29
2023/05/10 10:49:22;;;;;;;;;;;;;;;26.18;31.12;101392.22;5089663;28;1075;-26
2023/05/10 10:52:07;;;;;;;;;;;;;;;25.64;27.49;101385.19;5080239;28;904;-25
2023/05/10 10:54:32;;;;;;;;;;;;;;;26.25;27.68;101389.72;5076167;28;1119;-25
2023/05/10 10:57:26;;;;;;;;;;;;;;;26.08;25.73;101389.66;5092078;28;1058;-27
2023/05/10 10:59:52;;;;;;;;;;;;;;;25.23;27.14;101385.63;5094025;28;1845;-25
2023/05/10 11:02:53;;;;;;;;;;;;;;;25.66;26.56;101393.94;5081428;28;1110;-24
2023/05/10 11:05:36;;;;;;;;;;;;;;;25.40;30.42;101397.41;5016488;28;1281;-25
2023/05/10 11:08:14;;;;;;;;;;;;;;;25.21;32.58;101390.34;5070203;28;1151;-24
2023/05/10 11:10:40;;;;;;;;;;;;;;;24.99;32.34;101398.72;5075935;28;1146;-27
2023/05/10 11:13:07;;;;;;;;;;;;;;;26.30;29.50;101387.41;5077921;28;1425;-24
2023/05/10 11:15:36;;;;;;;;;;;;;;;25.68;30.33;101394.63;5080936;28;933;-32
2023/05/10 11:18:17;;;;;;;;;;;;;;;26.05;29.96;101392.66;5076293;28;1133;-25
2023/05/10 11:20:42;;;;;;;;;;;;;;;26.16;29.64;101391.53;5076563;28;1103;-26
2023/05/10 11:23:12;;;;;;;;;;;;;;;26.11;28.91;101392.00;5075499;28;1902;-30
2023/05/10 11:25:42;;;;;;;;;;;;;;;25.71;29.71;101388.09;5086472;28;1070;-27
2023/05/10 11:28:07;;;;;;;;;;;;;;;25.48;28.96;101385.84;5096208;28;962;-25
2023/05/10 11:30:33;;;;;;;;;;;;;;;26.16;27.10;101388.84;5096144;28;1050;-25
2023/05/10 11:32:58;;;;;;;;;;;;;;;26.31;27.54;101396.34;5092204;28;1129;-32
2023/05/10 11:35:24;;;;;;;;;;;;;;;26.14;28.43;101390.88;5086637;28;1019;-25
2023/05/10 11:37:49;;;;;;;;;;;;;;;26.17;29.19;101388.66;5077856;28;1443;-24
2023/05/10 11:40:15;;;;;;;;;;;;;;;26.65;28.13;101396.31;5084805;28;929;-25
2023/05/10 11:42:41;;;;;;;;;;;;;;;26.20;29.01;101392.06;5092798;28;1902;-30
2023/05/10 11:45:06;;;;;;;;;;;;;;;26.47;28.79;101384.78;5085149;28;1189;-26
2023/05/10 11:47:32;;;;;;;;;;;;;;;26.40;28.95;101388.16;5068311;28;1317;-25
2023/05/10 11:49:58;;;;;;;;;;;;;;;26.58;28.71;101389.88;5091934;28;1137;-30
2023/05/10 11:52:23;;;;;;;;;;;;;;;26.55;28.60;101384.81;5086021;28;897;-25
2023/05/10 11:54:52;;;;;;;;;;;;;;;26.36;29.79;101391.34;5095436;28;1549;-26
2023/05/10 11:57:18;;;;;;;;;;;;;;;26.31;29.40;101386.38;5085264;28;1140;-26
2023/05/10 11:59:44;;;;;;;;;;;;;;;26.35;29.37;101390.47;5092968;28;1094;-27
2023/05/10 12:02:10;;;;;;;;;;;;;;;26.46;29.06;101383.94;5095717;28;1043;-30
2023/05/10 12:04:35;;;;;;;;;;;;;;;26.38;29.35;101386.59;5079306;28;1988;-26
2023/05/10 12:07:01;;;;;;;;;;;;;;;26.18;29.93;101392.22;5095455;28;1027;-26
2023/05/10 12:09:26;;;;;;;;;;;;;;;26.39;29.61;101374.81;5078485;28;1069;-24
2023/05/10 12:11:54;;;;;;;;;;;;;;;26.40;29.67;101385.44;5086084;28;1167;-29
2023/05/10 12:14:21;;;;;;;;;;;;;;;26.49;29.70;101380.91;5095274;28;1019;-24
2023/05/10 12:16:47;;;;;;;;;;;;;;;26.31;29.53;101385.56;5066838;28;1258;-28
2023/05/10 12:19:12;;;;;;;;;;;;;;;26.23;29.78;101371.00;5062992;28;1333;-28
2023/05/10 12:21:38;;;;;;;;;;;;;;;26.44;29.66;101367.09;5076478;28;1259;-24
2023/05/10 12:24:05;;;;;;;;;;;;;;;26.61;29.66;101372.53;5090340;28;1967;-25
2023/05/10 12:26:30;;;;;;;;;;;;;;;26.51;29.19;101365.41;5083171;28;1095;-28
2023/05/10 12:29:11;;;;;;;;;;;;;;;26.17;30.03;101369.78;5081388;28;1075;-25
2023/05/10 12:31:53;;;;;;;;;;;;;;;26.52;29.54;101363.56;5085906;28;1095;-27
2023/05/10 12:34:25;;;;;;;;;;;;;;;26.38;29.92;101357.78;5084249;28;1189;-26
2023/05/10 12:36:54;;;;;;;;;;;;;;;26.76;29.46;101362.78;5088631;28;1115;-24
2023/05/10 12:39:20;;;;;;;;;;;;;;;26.46;29.99;101359.66;5098767;28;1105;-24
2023/05/10 12:41:45;;;;;;;;;;;;;;;25.99;30.88;101347.50;5089172;28;1162;-24
2023/05/10 12:44:11;;;;;;;;;;;;;;;26.34;30.17;101350.19;5092268;28;1906;-26
2023/05/10 12:46:36;;;;;;;;;;;;;;;26.28;30.36;101348.94;5089485;28;1087;-29